sensor_id;sensor_type;location;lat;lon;timestamp;P1;durP1;ratioP1;P2;durP2;ratioP2
62423;SDS011;48463;43.604;3.872;2023-07-30T00:02:18;9.82;;;7.88;;
62423;SDS011;48463;43.604;3.872;2023-07-30T00:04:44;12.02;;;8.57;;
62423;SDS011;48463;43.604;3.872;2023-07-30T00:07:10;11.38;;;7.70;;
62423;SDS011;48463;43.604;3.872;2023-07-30T00:09:37;10.75;;;8.38;;
62423;SDS011;48463;43.604;3.872;2023-07-30T00:12:04;16.88;;;9.70;;
62423;SDS011;48463;43.604;3.872;2023-07-30T00:14:30;13.75;;;8.02;;
62423;SDS011;48463;43.604;3.872;2023-07-30T00:16:57;14.95;;;10.27;;
62423;SDS011;48463;43.604;3.872;2023-07-30T00:19:23;11.38;;;8.40;;
62423;SDS011;48463;43.604;3.872;2023-07-30T00:21:50;16.95;;;8.88;;
62423;SDS011;48463;43.604;3.872;2023-07-30T00:24:16;13.10;;;10.20;;
62423;SDS011;48463;43.604;3.872;2023-07-30T00:26:42;11.23;;;9.95;;
62423;SDS011;48463;43.604;3.872;2023-07-30T00:29:10;19.30;;;10.00;;
62423;SDS011;48463;43.604;3.872;2023-07-30T00:31:35;12.77;;;9.20;;
62423;SDS011;48463;43.604;3.872;2023-07-30T00:34:02;12.38;;;9.25;;
62423;SDS011;48463;43.604;3.872;2023-07-30T00:36:28;13.57;;;9.40;;
62423;SDS011;48463;43.604;3.872;2023-07-30T00:38:55;13.68;;;9.00;;
62423;SDS011;48463;43.604;3.872;2023-07-30T00:41:20;13.05;;;9.20;;
62423;SDS011;48463;43.604;3.872;2023-07-30T00:43:46;11.23;;;8.63;;
62423;SDS011;48463;43.604;3.872;2023-07-30T00:46:12;16.08;;;9.23;;
62423;SDS011;48463;43.604;3.872;2023-07-30T00:48:38;12.07;;;8.68;;
62423;SDS011;48463;43.604;3.872;2023-07-30T00:51:04;13.13;;;9.00;;
62423;SDS011;48463;43.604;3.872;2023-07-30T00:53:32;15.15;;;9.50;;
62423;SDS011;48463;43.604;3.872;2023-07-30T00:55:59;14.57;;;8.90;;
62423;SDS011;48463;43.604;3.872;2023-07-30T00:58:25;13.20;;;9.63;;
62423;SDS011;48463;43.604;3.872;2023-07-30T01:00:52;19.92;;;9.27;;
62423;SDS011;48463;43.604;3.872;2023-07-30T01:03:19;17.50;;;8.55;;
62423;SDS011;48463;43.604;3.872;2023-07-30T01:05:45;14.85;;;9.68;;
62423;SDS011;48463;43.604;3.872;2023-07-30T01:08:10;11.98;;;8.50;;
62423;SDS011;48463;43.604;3.872;2023-07-30T01:10:36;15.13;;;8.95;;
62423;SDS011;48463;43.604;3.872;2023-07-30T01:13:05;10.77;;;7.78;;
62423;SDS011;48463;43.604;3.872;2023-07-30T01:15:33;12.18;;;8.13;;
62423;SDS011;48463;43.604;3.872;2023-07-30T01:17:59;15.55;;;8.43;;
62423;SDS011;48463;43.604;3.872;2023-07-30T01:20:24;10.15;;;7.65;;
62423;SDS011;48463;43.604;3.872;2023-07-30T01:22:55;11.20;;;8.48;;
62423;SDS011;48463;43.604;3.872;2023-07-30T01:25:21;11.00;;;7.65;;
62423;SDS011;48463;43.604;3.872;2023-07-30T01:27:52;13.30;;;9.02;;
62423;SDS011;48463;43.604;3.872;2023-07-30T01:30:22;12.07;;;7.85;;
62423;SDS011;48463;43.604;3.872;2023-07-30T01:32:52;12.18;;;8.70;;
62423;SDS011;48463;43.604;3.872;2023-07-30T01:35:21;10.60;;;8.27;;
62423;SDS011;48463;43.604;3.872;2023-07-30T01:37:50;13.88;;;7.45;;
62423;SDS011;48463;43.604;3.872;2023-07-30T01:40:17;12.05;;;7.00;;
62423;SDS011;48463;43.604;3.872;2023-07-30T01:42:43;10.35;;;8.07;;
62423;SDS011;48463;43.604;3.872;2023-07-30T01:45:09;11.40;;;8.23;;
62423;SDS011;48463;43.604;3.872;2023-07-30T01:47:34;11.85;;;8.07;;
62423;SDS011;48463;43.604;3.872;2023-07-30T01:50:00;11.90;;;7.32;;
62423;SDS011;48463;43.604;3.872;2023-07-30T01:52:28;13.95;;;8.32;;
62423;SDS011;48463;43.604;3.872;2023-07-30T01:54:53;14.43;;;8.52;;
62423;SDS011;48463;43.604;3.872;2023-07-30T01:57:21;14.60;;;7.18;;
62423;SDS011;48463;43.604;3.872;2023-07-30T01:59:46;11.55;;;6.88;;
62423;SDS011;48463;43.604;3.872;2023-07-30T02:02:12;11.80;;;7.55;;
62423;SDS011;48463;43.604;3.872;2023-07-30T02:04:38;9.90;;;7.00;;
62423;SDS011;48463;43.604;3.872;2023-07-30T02:07:03;10.10;;;6.85;;
62423;SDS011;48463;43.604;3.872;2023-07-30T02:09:29;13.70;;;7.80;;
62423;SDS011;48463;43.604;3.872;2023-07-30T02:11:55;10.25;;;8.05;;
62423;SDS011;48463;43.604;3.872;2023-07-30T02:14:20;11.57;;;7.75;;
62423;SDS011;48463;43.604;3.872;2023-07-30T02:16:46;11.20;;;7.55;;
62423;SDS011;48463;43.604;3.872;2023-07-30T02:19:12;8.98;;;6.90;;
62423;SDS011;48463;43.604;3.872;2023-07-30T02:21:37;10.55;;;6.53;;
62423;SDS011;48463;43.604;3.872;2023-07-30T02:24:07;15.07;;;6.03;;
62423;SDS011;48463;43.604;3.872;2023-07-30T02:26:39;9.43;;;6.20;;
62423;SDS011;48463;43.604;3.872;2023-07-30T02:29:05;8.73;;;5.45;;
62423;SDS011;48463;43.604;3.872;2023-07-30T02:31:31;10.93;;;5.38;;
62423;SDS011;48463;43.604;3.872;2023-07-30T02:33:57;11.00;;;5.90;;
62423;SDS011;48463;43.604;3.872;2023-07-30T02:36:23;8.80;;;4.65;;
62423;SDS011;48463;43.604;3.872;2023-07-30T02:38:49;7.47;;;4.80;;
62423;SDS011;48463;43.604;3.872;2023-07-30T02:41:15;9.63;;;4.85;;
62423;SDS011;48463;43.604;3.872;2023-07-30T02:43:41;11.35;;;5.03;;
62423;SDS011;48463;43.604;3.872;2023-07-30T02:46:07;7.97;;;4.35;;
62423;SDS011;48463;43.604;3.872;2023-07-30T02:48:32;5.07;;;2.90;;
62423;SDS011;48463;43.604;3.872;2023-07-30T02:50:58;4.70;;;2.78;;
62423;SDS011;48463;43.604;3.872;2023-07-30T02:53:25;3.45;;;1.92;;
62423;SDS011;48463;43.604;3.872;2023-07-30T02:55:51;12.07;;;2.83;;
62423;SDS011;48463;43.604;3.872;2023-07-30T02:58:17;6.20;;;2.60;;
62423;SDS011;48463;43.604;3.872;2023-07-30T03:00:42;2.45;;;1.73;;
62423;SDS011;48463;43.604;3.872;2023-07-30T03:03:09;3.15;;;1.90;;
62423;SDS011;48463;43.604;3.872;2023-07-30T03:05:34;3.83;;;2.00;;
62423;SDS011;48463;43.604;3.872;2023-07-30T03:08:00;2.50;;;1.88;;
62423;SDS011;48463;43.604;3.872;2023-07-30T03:10:27;3.50;;;2.22;;
62423;SDS011;48463;43.604;3.872;2023-07-30T03:12:53;3.90;;;1.80;;
62423;SDS011;48463;43.604;3.872;2023-07-30T03:15:18;5.13;;;2.45;;
62423;SDS011;48463;43.604;3.872;2023-07-30T03:17:44;2.55;;;2.05;;
62423;SDS011;48463;43.604;3.872;2023-07-30T03:20:10;3.38;;;2.28;;
62423;SDS011;48463;43.604;3.872;2023-07-30T03:22:36;2.65;;;1.75;;
62423;SDS011;48463;43.604;3.872;2023-07-30T03:25:01;4.25;;;2.25;;
62423;SDS011;48463;43.604;3.872;2023-07-30T03:27:28;2.58;;;1.88;;
62423;SDS011;48463;43.604;3.872;2023-07-30T03:29:53;2.33;;;1.90;;
62423;SDS011;48463;43.604;3.872;2023-07-30T03:32:20;2.72;;;1.83;;
62423;SDS011;48463;43.604;3.872;2023-07-30T03:34:45;3.20;;;2.08;;
62423;SDS011;48463;43.604;3.872;2023-07-30T03:37:12;5.15;;;2.40;;
62423;SDS011;48463;43.604;3.872;2023-07-30T03:39:38;6.30;;;2.42;;
62423;SDS011;48463;43.604;3.872;2023-07-30T03:42:05;2.72;;;2.10;;
62423;SDS011;48463;43.604;3.872;2023-07-30T03:44:30;4.10;;;2.00;;
62423;SDS011;48463;43.604;3.872;2023-07-30T03:46:56;3.28;;;2.10;;
62423;SDS011;48463;43.604;3.872;2023-07-30T03:49:21;3.75;;;2.17;;
62423;SDS011;48463;43.604;3.872;2023-07-30T03:51:47;3.58;;;2.08;;
62423;SDS011;48463;43.604;3.872;2023-07-30T03:54:13;2.35;;;1.90;;
62423;SDS011;48463;43.604;3.872;2023-07-30T03:56:38;5.25;;;2.45;;
62423;SDS011;48463;43.604;3.872;2023-07-30T03:59:04;3.47;;;2.35;;
62423;SDS011;48463;43.604;3.872;2023-07-30T04:01:29;4.53;;;2.13;;
62423;SDS011;48463;43.604;3.872;2023-07-30T04:03:55;4.38;;;2.05;;
62423;SDS011;48463;43.604;3.872;2023-07-30T04:06:21;5.18;;;2.13;;
62423;SDS011;48463;43.604;3.872;2023-07-30T04:08:47;3.10;;;2.20;;
62423;SDS011;48463;43.604;3.872;2023-07-30T04:11:12;2.97;;;2.00;;
62423;SDS011;48463;43.604;3.872;2023-07-30T04:13:38;5.75;;;2.33;;
62423;SDS011;48463;43.604;3.872;2023-07-30T04:16:03;1.98;;;1.65;;
62423;SDS011;48463;43.604;3.872;2023-07-30T04:18:29;3.70;;;2.35;;
62423;SDS011;48463;43.604;3.872;2023-07-30T04:20:55;3.67;;;2.17;;
62423;SDS011;48463;43.604;3.872;2023-07-30T04:23:21;3.38;;;2.35;;
62423;SDS011;48463;43.604;3.872;2023-07-30T04:25:48;3.22;;;2.15;;
62423;SDS011;48463;43.604;3.872;2023-07-30T04:28:15;2.13;;;1.70;;
62423;SDS011;48463;43.604;3.872;2023-07-30T04:30:40;3.42;;;2.00;;
62423;SDS011;48463;43.604;3.872;2023-07-30T04:33:06;3.70;;;2.13;;
62423;SDS011;48463;43.604;3.872;2023-07-30T04:35:32;2.85;;;1.95;;
62423;SDS011;48463;43.604;3.872;2023-07-30T04:37:57;5.97;;;2.20;;
62423;SDS011;48463;43.604;3.872;2023-07-30T04:40:23;3.22;;;2.10;;
62423;SDS011;48463;43.604;3.872;2023-07-30T04:42:48;2.35;;;1.75;;
62423;SDS011;48463;43.604;3.872;2023-07-30T04:45:14;4.75;;;2.35;;
62423;SDS011;48463;43.604;3.872;2023-07-30T04:47:40;2.25;;;1.83;;
62423;SDS011;48463;43.604;3.872;2023-07-30T04:50:05;3.30;;;2.03;;
62423;SDS011;48463;43.604;3.872;2023-07-30T04:52:31;2.58;;;1.67;;
62423;SDS011;48463;43.604;3.872;2023-07-30T04:54:57;4.45;;;1.90;;
62423;SDS011;48463;43.604;3.872;2023-07-30T04:57:23;3.90;;;1.80;;
62423;SDS011;48463;43.604;3.872;2023-07-30T04:59:48;10.73;;;2.90;;
62423;SDS011;48463;43.604;3.872;2023-07-30T05:02:14;4.40;;;2.10;;
62423;SDS011;48463;43.604;3.872;2023-07-30T05:04:40;3.00;;;2.25;;
62423;SDS011;48463;43.604;3.872;2023-07-30T05:07:05;3.03;;;1.95;;
62423;SDS011;48463;43.604;3.872;2023-07-30T05:09:31;3.00;;;1.83;;
62423;SDS011;48463;43.604;3.872;2023-07-30T05:11:56;3.88;;;2.03;;
62423;SDS011;48463;43.604;3.872;2023-07-30T05:14:22;2.17;;;1.60;;
62423;SDS011;48463;43.604;3.872;2023-07-30T05:16:48;2.08;;;1.40;;
62423;SDS011;48463;43.604;3.872;2023-07-30T05:19:14;2.60;;;1.70;;
62423;SDS011;48463;43.604;3.872;2023-07-30T05:21:40;2.30;;;1.38;;
62423;SDS011;48463;43.604;3.872;2023-07-30T05:24:06;7.13;;;1.58;;
62423;SDS011;48463;43.604;3.872;2023-07-30T05:26:32;7.82;;;1.83;;
62423;SDS011;48463;43.604;3.872;2023-07-30T05:28:58;2.03;;;1.48;;
62423;SDS011;48463;43.604;3.872;2023-07-30T05:31:23;4.88;;;1.73;;
62423;SDS011;48463;43.604;3.872;2023-07-30T05:33:49;2.35;;;1.67;;
62423;SDS011;48463;43.604;3.872;2023-07-30T05:36:14;3.20;;;1.80;;
62423;SDS011;48463;43.604;3.872;2023-07-30T05:38:40;3.42;;;1.85;;
62423;SDS011;48463;43.604;3.872;2023-07-30T05:41:06;2.22;;;1.40;;
62423;SDS011;48463;43.604;3.872;2023-07-30T05:43:31;2.20;;;1.30;;
62423;SDS011;48463;43.604;3.872;2023-07-30T05:45:57;3.05;;;1.58;;
62423;SDS011;48463;43.604;3.872;2023-07-30T05:48:22;5.57;;;1.98;;
62423;SDS011;48463;43.604;3.872;2023-07-30T05:50:48;2.58;;;1.30;;
62423;SDS011;48463;43.604;3.872;2023-07-30T05:53:14;2.35;;;1.40;;
62423;SDS011;48463;43.604;3.872;2023-07-30T05:55:40;1.63;;;1.08;;
62423;SDS011;48463;43.604;3.872;2023-07-30T05:58:05;3.60;;;1.67;;
62423;SDS011;48463;43.604;3.872;2023-07-30T06:00:31;3.05;;;1.80;;
62423;SDS011;48463;43.604;3.872;2023-07-30T06:02:56;3.22;;;1.77;;
62423;SDS011;48463;43.604;3.872;2023-07-30T06:05:22;2.17;;;1.30;;
62423;SDS011;48463;43.604;3.872;2023-07-30T06:07:48;2.78;;;1.45;;
62423;SDS011;48463;43.604;3.872;2023-07-30T06:10:14;2.20;;;1.30;;
62423;SDS011;48463;43.604;3.872;2023-07-30T06:12:39;2.92;;;1.60;;
62423;SDS011;48463;43.604;3.872;2023-07-30T06:15:05;4.05;;;1.90;;
62423;SDS011;48463;43.604;3.872;2023-07-30T06:17:31;1.48;;;1.20;;
62423;SDS011;48463;43.604;3.872;2023-07-30T06:19:57;2.38;;;1.42;;
62423;SDS011;48463;43.604;3.872;2023-07-30T06:22:22;2.55;;;1.38;;
62423;SDS011;48463;43.604;3.872;2023-07-30T06:24:48;2.65;;;1.35;;
62423;SDS011;48463;43.604;3.872;2023-07-30T06:27:14;2.78;;;1.40;;
62423;SDS011;48463;43.604;3.872;2023-07-30T06:29:39;4.93;;;1.50;;
62423;SDS011;48463;43.604;3.872;2023-07-30T06:32:05;3.85;;;1.67;;
62423;SDS011;48463;43.604;3.872;2023-07-30T06:34:31;3.72;;;1.88;;
62423;SDS011;48463;43.604;3.872;2023-07-30T06:36:57;2.55;;;1.25;;
62423;SDS011;48463;43.604;3.872;2023-07-30T06:39:22;1.80;;;1.52;;
62423;SDS011;48463;43.604;3.872;2023-07-30T06:41:48;2.90;;;1.63;;
62423;SDS011;48463;43.604;3.872;2023-07-30T06:44:13;1.52;;;1.08;;
62423;SDS011;48463;43.604;3.872;2023-07-30T06:46:39;2.90;;;1.80;;
62423;SDS011;48463;43.604;3.872;2023-07-30T06:49:05;2.35;;;1.35;;
62423;SDS011;48463;43.604;3.872;2023-07-30T06:51:30;2.65;;;1.60;;
62423;SDS011;48463;43.604;3.872;2023-07-30T06:53:56;3.47;;;1.42;;
62423;SDS011;48463;43.604;3.872;2023-07-30T06:56:22;0.82;;;0.80;;
62423;SDS011;48463;43.604;3.872;2023-07-30T06:58:47;2.15;;;1.35;;
62423;SDS011;48463;43.604;3.872;2023-07-30T07:01:13;4.20;;;1.88;;
62423;SDS011;48463;43.604;3.872;2023-07-30T07:03:38;2.03;;;1.40;;
62423;SDS011;48463;43.604;3.872;2023-07-30T07:06:04;2.08;;;1.25;;
62423;SDS011;48463;43.604;3.872;2023-07-30T07:08:30;2.33;;;1.35;;
62423;SDS011;48463;43.604;3.872;2023-07-30T07:10:55;2.10;;;1.27;;
62423;SDS011;48463;43.604;3.872;2023-07-30T07:13:21;7.07;;;1.75;;
62423;SDS011;48463;43.604;3.872;2023-07-30T07:15:47;1.55;;;1.20;;
62423;SDS011;48463;43.604;3.872;2023-07-30T07:18:13;1.95;;;1.15;;
62423;SDS011;48463;43.604;3.872;2023-07-30T07:20:38;2.85;;;1.13;;
62423;SDS011;48463;43.604;3.872;2023-07-30T07:23:04;2.83;;;1.15;;
62423;SDS011;48463;43.604;3.872;2023-07-30T07:25:30;2.25;;;1.52;;
62423;SDS011;48463;43.604;3.872;2023-07-30T07:27:55;5.03;;;1.50;;
62423;SDS011;48463;43.604;3.872;2023-07-30T07:30:21;3.05;;;1.30;;
62423;SDS011;48463;43.604;3.872;2023-07-30T07:32:47;2.67;;;1.30;;
62423;SDS011;48463;43.604;3.872;2023-07-30T07:35:16;2.15;;;1.05;;
62423;SDS011;48463;43.604;3.872;2023-07-30T07:37:43;6.63;;;1.65;;
62423;SDS011;48463;43.604;3.872;2023-07-30T07:40:09;2.95;;;1.55;;
62423;SDS011;48463;43.604;3.872;2023-07-30T07:42:35;1.38;;;1.10;;
62423;SDS011;48463;43.604;3.872;2023-07-30T07:45:01;2.30;;;1.45;;
62423;SDS011;48463;43.604;3.872;2023-07-30T07:47:26;6.68;;;1.63;;
62423;SDS011;48463;43.604;3.872;2023-07-30T07:49:52;2.08;;;1.00;;
62423;SDS011;48463;43.604;3.872;2023-07-30T07:52:17;3.25;;;1.27;;
62423;SDS011;48463;43.604;3.872;2023-07-30T07:54:44;3.05;;;1.10;;
62423;SDS011;48463;43.604;3.872;2023-07-30T07:57:10;2.63;;;1.50;;
62423;SDS011;48463;43.604;3.872;2023-07-30T07:59:35;4.72;;;1.38;;
62423;SDS011;48463;43.604;3.872;2023-07-30T08:02:01;3.65;;;1.45;;
62423;SDS011;48463;43.604;3.872;2023-07-30T08:04:27;2.15;;;1.25;;
62423;SDS011;48463;43.604;3.872;2023-07-30T08:06:53;3.55;;;1.15;;
62423;SDS011;48463;43.604;3.872;2023-07-30T08:09:18;1.90;;;1.15;;
62423;SDS011;48463;43.604;3.872;2023-07-30T08:11:44;1.65;;;0.80;;
62423;SDS011;48463;43.604;3.872;2023-07-30T08:14:10;5.68;;;1.30;;
62423;SDS011;48463;43.604;3.872;2023-07-30T08:16:35;2.78;;;1.00;;
62423;SDS011;48463;43.604;3.872;2023-07-30T08:19:01;3.22;;;1.38;;
62423;SDS011;48463;43.604;3.872;2023-07-30T08:21:27;4.13;;;1.00;;
62423;SDS011;48463;43.604;3.872;2023-07-30T08:23:52;2.95;;;1.33;;
62423;SDS011;48463;43.604;3.872;2023-07-30T08:26:18;10.45;;;2.05;;
62423;SDS011;48463;43.604;3.872;2023-07-30T08:28:43;2.60;;;1.48;;
62423;SDS011;48463;43.604;3.872;2023-07-30T08:31:09;1.85;;;0.95;;
62423;SDS011;48463;43.604;3.872;2023-07-30T08:33:35;2.05;;;1.20;;
62423;SDS011;48463;43.604;3.872;2023-07-30T08:36:00;2.05;;;1.00;;
62423;SDS011;48463;43.604;3.872;2023-07-30T08:38:26;2.10;;;1.17;;
62423;SDS011;48463;43.604;3.872;2023-07-30T08:40:53;2.17;;;1.15;;
62423;SDS011;48463;43.604;3.872;2023-07-30T08:43:18;7.03;;;1.30;;
62423;SDS011;48463;43.604;3.872;2023-07-30T08:45:44;0.98;;;0.70;;
62423;SDS011;48463;43.604;3.872;2023-07-30T08:48:10;3.60;;;1.30;;
62423;SDS011;48463;43.604;3.872;2023-07-30T08:50:36;2.38;;;1.08;;
62423;SDS011;48463;43.604;3.872;2023-07-30T08:53:02;1.85;;;1.05;;
62423;SDS011;48463;43.604;3.872;2023-07-30T08:55:28;5.82;;;1.40;;
62423;SDS011;48463;43.604;3.872;2023-07-30T08:57:58;12.25;;;3.05;;
62423;SDS011;48463;43.604;3.872;2023-07-30T09:00:26;3.10;;;1.27;;
62423;SDS011;48463;43.604;3.872;2023-07-30T09:02:58;7.10;;;1.67;;
62423;SDS011;48463;43.604;3.872;2023-07-30T09:05:25;20.60;;;1.75;;
62423;SDS011;48463;43.604;3.872;2023-07-30T09:07:54;2.10;;;1.05;;
62423;SDS011;48463;43.604;3.872;2023-07-30T09:10:20;2.13;;;1.23;;
62423;SDS011;48463;43.604;3.872;2023-07-30T09:12:45;4.20;;;1.58;;
62423;SDS011;48463;43.604;3.872;2023-07-30T09:15:18;2.53;;;1.48;;
62423;SDS011;48463;43.604;3.872;2023-07-30T09:17:45;12.75;;;1.98;;
62423;SDS011;48463;43.604;3.872;2023-07-30T09:20:10;5.00;;;1.80;;
62423;SDS011;48463;43.604;3.872;2023-07-30T09:22:36;7.70;;;1.63;;
62423;SDS011;48463;43.604;3.872;2023-07-30T09:25:04;2.85;;;1.45;;
62423;SDS011;48463;43.604;3.872;2023-07-30T09:27:31;1.55;;;0.95;;
62423;SDS011;48463;43.604;3.872;2023-07-30T09:30:00;6.82;;;1.60;;
62423;SDS011;48463;43.604;3.872;2023-07-30T09:32:30;24.85;;;4.43;;
62423;SDS011;48463;43.604;3.872;2023-07-30T09:35:07;6.72;;;2.05;;
62423;SDS011;48463;43.604;3.872;2023-07-30T09:37:40;9.43;;;2.10;;
62423;SDS011;48463;43.604;3.872;2023-07-30T09:40:06;5.85;;;1.77;;
62423;SDS011;48463;43.604;3.872;2023-07-30T09:42:34;11.05;;;4.43;;
62423;SDS011;48463;43.604;3.872;2023-07-30T09:45:04;3.75;;;1.48;;
62423;SDS011;48463;43.604;3.872;2023-07-30T09:47:32;10.82;;;5.07;;
62423;SDS011;48463;43.604;3.872;2023-07-30T09:49:59;2.00;;;1.20;;
62423;SDS011;48463;43.604;3.872;2023-07-30T09:52:24;6.53;;;1.35;;
62423;SDS011;48463;43.604;3.872;2023-07-30T09:54:50;3.00;;;1.48;;
62423;SDS011;48463;43.604;3.872;2023-07-30T09:57:17;3.10;;;1.48;;
62423;SDS011;48463;43.604;3.872;2023-07-30T09:59:43;2.75;;;1.60;;
62423;SDS011;48463;43.604;3.872;2023-07-30T10:02:08;2.70;;;1.38;;
62423;SDS011;48463;43.604;3.872;2023-07-30T10:04:37;2.53;;;1.23;;
62423;SDS011;48463;43.604;3.872;2023-07-30T10:07:08;2.22;;;1.05;;
62423;SDS011;48463;43.604;3.872;2023-07-30T10:09:41;1.65;;;1.38;;
62423;SDS011;48463;43.604;3.872;2023-07-30T10:12:33;3.88;;;1.80;;
62423;SDS011;48463;43.604;3.872;2023-07-30T10:14:56;4.32;;;1.73;;
62423;SDS011;48463;43.604;3.872;2023-07-30T10:17:22;2.80;;;1.40;;
62423;SDS011;48463;43.604;3.872;2023-07-30T10:19:48;7.72;;;2.22;;
62423;SDS011;48463;43.604;3.872;2023-07-30T10:25:04;2.78;;;1.55;;
62423;SDS011;48463;43.604;3.872;2023-07-30T10:27:39;4.15;;;1.52;;
62423;SDS011;48463;43.604;3.872;2023-07-30T10:30:12;6.45;;;2.00;;
62423;SDS011;48463;43.604;3.872;2023-07-30T10:32:40;6.97;;;2.40;;
62423;SDS011;48463;43.604;3.872;2023-07-30T10:35:06;5.97;;;1.80;;
62423;SDS011;48463;43.604;3.872;2023-07-30T10:37:32;5.80;;;2.30;;
62423;SDS011;48463;43.604;3.872;2023-07-30T10:39:58;3.40;;;1.58;;
62423;SDS011;48463;43.604;3.872;2023-07-30T10:42:24;4.97;;;2.20;;
62423;SDS011;48463;43.604;3.872;2023-07-30T10:44:59;4.57;;;1.60;;
62423;SDS011;48463;43.604;3.872;2023-07-30T10:47:26;2.92;;;1.40;;
62423;SDS011;48463;43.604;3.872;2023-07-30T10:49:52;4.57;;;1.60;;
62423;SDS011;48463;43.604;3.872;2023-07-30T10:52:24;3.40;;;1.60;;
62423;SDS011;48463;43.604;3.872;2023-07-30T10:54:51;2.28;;;1.42;;
62423;SDS011;48463;43.604;3.872;2023-07-30T10:57:29;3.38;;;1.52;;
62423;SDS011;48463;43.604;3.872;2023-07-30T11:00:01;5.10;;;1.83;;
62423;SDS011;48463;43.604;3.872;2023-07-30T11:02:28;4.88;;;1.92;;
62423;SDS011;48463;43.604;3.872;2023-07-30T11:04:54;4.90;;;1.73;;
62423;SDS011;48463;43.604;3.872;2023-07-30T11:07:20;3.78;;;1.70;;
62423;SDS011;48463;43.604;3.872;2023-07-30T11:09:45;2.55;;;1.40;;
62423;SDS011;48463;43.604;3.872;2023-07-30T11:12:25;14.85;;;2.60;;
62423;SDS011;48463;43.604;3.872;2023-07-30T11:14:51;1.85;;;1.15;;
62423;SDS011;48463;43.604;3.872;2023-07-30T11:17:17;3.38;;;1.38;;
62423;SDS011;48463;43.604;3.872;2023-07-30T11:19:43;4.75;;;1.65;;
62423;SDS011;48463;43.604;3.872;2023-07-30T11:22:09;2.55;;;1.45;;
62423;SDS011;48463;43.604;3.872;2023-07-30T11:24:35;5.22;;;1.85;;
62423;SDS011;48463;43.604;3.872;2023-07-30T11:27:01;2.42;;;1.67;;
62423;SDS011;48463;43.604;3.872;2023-07-30T11:29:28;5.40;;;1.83;;
62423;SDS011;48463;43.604;3.872;2023-07-30T11:31:57;4.82;;;1.60;;
62423;SDS011;48463;43.604;3.872;2023-07-30T11:34:24;3.35;;;1.65;;
62423;SDS011;48463;43.604;3.872;2023-07-30T11:36:51;3.38;;;1.83;;
62423;SDS011;48463;43.604;3.872;2023-07-30T11:39:18;4.95;;;1.70;;
62423;SDS011;48463;43.604;3.872;2023-07-30T11:41:45;4.35;;;2.17;;
62423;SDS011;48463;43.604;3.872;2023-07-30T11:44:29;8.35;;;2.22;;
62423;SDS011;48463;43.604;3.872;2023-07-30T11:46:59;5.28;;;2.55;;
62423;SDS011;48463;43.604;3.872;2023-07-30T11:49:24;4.38;;;1.73;;
62423;SDS011;48463;43.604;3.872;2023-07-30T11:51:50;5.97;;;3.15;;
62423;SDS011;48463;43.604;3.872;2023-07-30T11:54:20;10.10;;;2.17;;
62423;SDS011;48463;43.604;3.872;2023-07-30T11:56:47;2.78;;;1.70;;
62423;SDS011;48463;43.604;3.872;2023-07-30T11:59:19;4.25;;;2.05;;
62423;SDS011;48463;43.604;3.872;2023-07-30T12:01:46;10.10;;;3.40;;
62423;SDS011;48463;43.604;3.872;2023-07-30T12:04:12;3.42;;;2.08;;
62423;SDS011;48463;43.604;3.872;2023-07-30T12:06:55;3.10;;;2.10;;
62423;SDS011;48463;43.604;3.872;2023-07-30T12:09:22;8.68;;;2.75;;
62423;SDS011;48463;43.604;3.872;2023-07-30T12:14:19;8.88;;;2.83;;
62423;SDS011;48463;43.604;3.872;2023-07-30T12:16:47;6.95;;;2.53;;
62423;SDS011;48463;43.604;3.872;2023-07-30T12:19:13;4.72;;;1.90;;
62423;SDS011;48463;43.604;3.872;2023-07-30T12:21:38;6.63;;;2.45;;
62423;SDS011;48463;43.604;3.872;2023-07-30T12:24:04;4.45;;;2.30;;
62423;SDS011;48463;43.604;3.872;2023-07-30T12:26:30;3.75;;;2.03;;
62423;SDS011;48463;43.604;3.872;2023-07-30T12:28:56;5.78;;;2.13;;
62423;SDS011;48463;43.604;3.872;2023-07-30T12:31:22;3.97;;;1.90;;
62423;SDS011;48463;43.604;3.872;2023-07-30T12:33:48;4.25;;;2.05;;
62423;SDS011;48463;43.604;3.872;2023-07-30T12:36:13;11.73;;;3.72;;
62423;SDS011;48463;43.604;3.872;2023-07-30T12:38:39;7.07;;;2.58;;
62423;SDS011;48463;43.604;3.872;2023-07-30T12:41:05;5.82;;;2.22;;
62423;SDS011;48463;43.604;3.872;2023-07-30T12:43:31;6.65;;;2.30;;
62423;SDS011;48463;43.604;3.872;2023-07-30T12:45:56;5.95;;;2.58;;
62423;SDS011;48463;43.604;3.872;2023-07-30T12:48:22;5.10;;;2.20;;
62423;SDS011;48463;43.604;3.872;2023-07-30T12:50:48;5.03;;;2.20;;
62423;SDS011;48463;43.604;3.872;2023-07-30T12:53:13;7.20;;;2.67;;
62423;SDS011;48463;43.604;3.872;2023-07-30T12:55:39;5.60;;;2.25;;
62423;SDS011;48463;43.604;3.872;2023-07-30T12:58:05;4.35;;;2.55;;
62423;SDS011;48463;43.604;3.872;2023-07-30T13:00:31;4.07;;;2.10;;
62423;SDS011;48463;43.604;3.872;2023-07-30T13:02:58;3.63;;;2.33;;
62423;SDS011;48463;43.604;3.872;2023-07-30T13:05:23;4.15;;;2.17;;
62423;SDS011;48463;43.604;3.872;2023-07-30T13:07:49;7.30;;;2.15;;
62423;SDS011;48463;43.604;3.872;2023-07-30T13:10:15;10.02;;;2.95;;
62423;SDS011;48463;43.604;3.872;2023-07-30T13:12:41;4.13;;;2.20;;
62423;SDS011;48463;43.604;3.872;2023-07-30T13:15:06;10.32;;;2.60;;
62423;SDS011;48463;43.604;3.872;2023-07-30T13:17:32;7.18;;;2.22;;
62423;SDS011;48463;43.604;3.872;2023-07-30T13:19:58;12.60;;;4.47;;
62423;SDS011;48463;43.604;3.872;2023-07-30T13:22:25;12.60;;;6.68;;
62423;SDS011;48463;43.604;3.872;2023-07-30T13:24:51;4.45;;;2.97;;
62423;SDS011;48463;43.604;3.872;2023-07-30T13:27:17;7.07;;;2.47;;
62423;SDS011;48463;43.604;3.872;2023-07-30T13:29:43;4.95;;;2.75;;
62423;SDS011;48463;43.604;3.872;2023-07-30T13:32:10;2.80;;;1.70;;
62423;SDS011;48463;43.604;3.872;2023-07-30T13:34:37;9.18;;;3.65;;
62423;SDS011;48463;43.604;3.872;2023-07-30T13:37:02;8.15;;;3.72;;
62423;SDS011;48463;43.604;3.872;2023-07-30T13:39:28;7.72;;;3.22;;
62423;SDS011;48463;43.604;3.872;2023-07-30T13:41:54;6.85;;;3.33;;
62423;SDS011;48463;43.604;3.872;2023-07-30T13:44:20;5.00;;;2.55;;
62423;SDS011;48463;43.604;3.872;2023-07-30T13:46:45;33.47;;;5.78;;
62423;SDS011;48463;43.604;3.872;2023-07-30T13:49:11;27.20;;;3.92;;
62423;SDS011;48463;43.604;3.872;2023-07-30T13:51:37;4.43;;;2.50;;
62423;SDS011;48463;43.604;3.872;2023-07-30T13:54:02;8.85;;;3.20;;
62423;SDS011;48463;43.604;3.872;2023-07-30T13:56:28;11.25;;;3.85;;
62423;SDS011;48463;43.604;3.872;2023-07-30T13:58:55;4.68;;;2.75;;
62423;SDS011;48463;43.604;3.872;2023-07-30T14:01:21;6.10;;;2.67;;
62423;SDS011;48463;43.604;3.872;2023-07-30T14:03:46;6.38;;;2.60;;
62423;SDS011;48463;43.604;3.872;2023-07-30T14:06:12;6.03;;;3.22;;
62423;SDS011;48463;43.604;3.872;2023-07-30T14:08:38;4.82;;;2.78;;
62423;SDS011;48463;43.604;3.872;2023-07-30T14:11:04;8.60;;;3.70;;
62423;SDS011;48463;43.604;3.872;2023-07-30T14:13:29;5.18;;;2.38;;
62423;SDS011;48463;43.604;3.872;2023-07-30T14:15:56;4.63;;;2.50;;
62423;SDS011;48463;43.604;3.872;2023-07-30T14:18:23;6.68;;;2.47;;
62423;SDS011;48463;43.604;3.872;2023-07-30T14:20:50;6.68;;;2.78;;
62423;SDS011;48463;43.604;3.872;2023-07-30T14:23:16;4.35;;;2.47;;
62423;SDS011;48463;43.604;3.872;2023-07-30T14:25:41;5.85;;;2.70;;
62423;SDS011;48463;43.604;3.872;2023-07-30T14:28:07;7.65;;;2.88;;
62423;SDS011;48463;43.604;3.872;2023-07-30T14:30:32;5.20;;;2.58;;
62423;SDS011;48463;43.604;3.872;2023-07-30T14:33:00;10.13;;;4.03;;
62423;SDS011;48463;43.604;3.872;2023-07-30T14:35:29;4.40;;;2.45;;
62423;SDS011;48463;43.604;3.872;2023-07-30T14:37:55;8.50;;;3.03;;
62423;SDS011;48463;43.604;3.872;2023-07-30T14:40:20;4.78;;;2.00;;
62423;SDS011;48463;43.604;3.872;2023-07-30T14:42:47;4.28;;;2.55;;
62423;SDS011;48463;43.604;3.872;2023-07-30T14:45:12;5.32;;;2.80;;
62423;SDS011;48463;43.604;3.872;2023-07-30T14:47:38;4.90;;;2.70;;